createdAt,value
2023-04-01T00:08:06.655Z,96788.98
2023-04-01T00:18:14.897Z,96784.13
2023-04-01T00:28:23.016Z,96781.30
2023-04-01T00:38:30.062Z,96783.38
2023-04-01T00:48:41.070Z,96783.70
2023-04-01T00:58:53.382Z,96785.25
2023-04-01T01:09:22.257Z,96778.42
2023-04-01T01:19:41.115Z,96778.65
2023-04-01T01:30:26.053Z,96776.48
2023-04-01T01:40:36.736Z,96777.14
2023-04-01T01:50:44.005Z,96776.73
2023-04-01T02:00:48.821Z,96773.60
2023-04-01T02:10:54.205Z,96769.80
2023-04-01T02:21:01.485Z,96763.59
2023-04-01T02:31:10.613Z,96764.10
2023-04-01T02:41:17.806Z,96769.45
2023-04-01T02:51:25.496Z,96777.67
2023-04-01T03:01:31.758Z,96792.02
2023-04-01T03:11:39.010Z,96794.88
2023-04-01T03:21:46.259Z,96799.52
2023-04-01T03:31:53.207Z,96797.56
2023-04-01T03:42:01.234Z,96802.92
2023-04-01T03:52:10.314Z,96807.41
2023-04-01T04:02:17.373Z,96809.63
2023-04-01T04:12:24.633Z,96820.80
2023-04-01T04:22:31.701Z,96823.57
2023-04-01T04:32:38.509Z,96825.17
2023-04-01T04:42:45.774Z,96823.29
2023-04-01T04:52:52.791Z,96820.08
2023-04-01T05:02:59.865Z,96827.12
2023-04-01T05:13:07.077Z,96828.86
2023-04-01T05:23:14.232Z,96826.92
2023-04-01T05:33:21.220Z,96821.17
2023-04-01T05:43:29.107Z,96826.66
2023-04-01T05:53:36.239Z,96831.20
2023-04-01T06:03:43.717Z,96839.79
2023-04-01T06:14:09.400Z,96839.41
2023-04-01T06:24:30.537Z,96840.15
2023-04-01T06:34:46.023Z,96841.48
2023-04-01T06:44:56.247Z,96842.87
2023-04-01T06:55:02.388Z,96845.69
2023-04-01T07:05:13.370Z,96849.02
2023-04-01T07:15:19.601Z,96857.93
2023-04-01T07:25:31.687Z,96863.83
2023-04-01T07:35:41.261Z,96861.52
2023-04-01T07:45:53.960Z,96864.20
2023-04-01T07:56:05.519Z,96866.68
2023-04-01T08:06:09.750Z,96874.97
2023-04-01T08:16:20.516Z,96875.89
2023-04-01T08:26:28.430Z,96875.36
2023-04-01T08:36:37.045Z,96875.84
2023-04-01T08:47:23.984Z,96877.20
2023-04-01T08:57:33.486Z,96874.88
2023-04-01T09:07:40.235Z,96876.00
2023-04-01T09:17:58.719Z,96875.77
2023-04-01T09:28:05.222Z,96881.48
2023-04-01T09:38:16.380Z,96889.32
2023-04-01T09:48:26.215Z,96891.93
2023-04-01T09:58:59.269Z,96897.14
2023-04-01T10:09:43.862Z,96899.23
2023-04-01T10:20:17.693Z,96899.71
2023-04-01T10:30:59.027Z,96889.05
2023-04-01T10:41:23.455Z,96881.38
2023-04-01T10:52:04.851Z,96875.90
2023-04-01T11:02:45.283Z,96873.83
2023-04-01T11:13:13.304Z,96870.16
2023-04-01T11:24:01.874Z,96870.50
2023-04-01T11:34:19.149Z,96863.37
2023-04-01T11:44:29.764Z,96879.75
2023-04-01T11:54:42.785Z,96898.80
2023-04-01T12:05:00.617Z,96906.71
2023-04-01T12:15:16.196Z,96905.31
2023-04-01T12:25:25.560Z,96905.67
2023-04-01T12:35:35.458Z,96912.52
2023-04-01T12:45:40.993Z,96926.65
2023-04-01T12:55:53.834Z,96937.23
2023-04-01T13:06:22.187Z,96945.33
2023-04-01T13:16:30.147Z,96956.79
2023-04-01T13:26:35.863Z,96965.46
2023-04-01T13:36:46.052Z,96968.27
2023-04-01T13:46:56.864Z,96966.98
2023-04-01T13:57:07.779Z,96971.02
2023-04-01T14:07:18.335Z,96979.94
2023-04-01T14:17:47.618Z,96987.34
2023-04-01T14:27:56.414Z,96991.61
2023-04-01T14:38:29.692Z,97001.80
2023-04-01T14:48:38.164Z,97003.98
2023-04-01T14:58:45.531Z,97009.83
2023-04-01T15:08:52.052Z,97021.30
2023-04-01T15:18:59.663Z,97023.82
2023-04-01T15:29:10.118Z,97028.69
2023-04-01T15:39:15.815Z,97041.91
2023-04-01T15:49:29.887Z,97059.14
2023-04-01T15:59:48.771Z,97068.50
2023-04-01T16:10:01.493Z,97081.80
2023-04-01T16:20:09.147Z,97094.51
2023-04-01T16:30:34.962Z,97106.70
2023-04-01T16:40:43.254Z,97124.64
2023-04-01T16:50:53.097Z,97134.67
2023-04-01T17:01:02.883Z,97151.09
2023-04-01T17:11:09.779Z,97167.48
2023-04-01T17:21:16.162Z,97184.02
2023-04-01T17:31:35.974Z,97192.55
2023-04-01T17:41:43.558Z,97205.20
2023-04-01T17:51:49.092Z,97215.20
2023-04-01T18:01:57.579Z,97232.73
2023-04-01T18:12:10.092Z,97249.98
2023-04-01T18:22:17.684Z,97264.41
2023-04-01T18:32:38.040Z,97274.34
2023-04-01T18:42:45.651Z,97288.58
2023-04-01T18:52:57.304Z,97302.39
2023-04-01T19:03:04.834Z,97311.48
2023-04-01T19:13:18.543Z,97321.81
2023-04-01T19:23:40.833Z,97332.20
2023-04-01T19:33:49.370Z,97346.60
2023-04-01T19:44:01.214Z,97353.98
2023-04-01T19:54:15.509Z,97368.25
2023-04-01T20:04:29.431Z,97378.58
2023-04-01T20:14:39.090Z,97388.52
2023-04-01T20:24:47.793Z,97396.17
2023-04-01T20:34:58.800Z,97398.85
2023-04-01T20:45:17.544Z,97403.86
2023-04-01T20:55:31.589Z,97405.70
2023-04-01T21:05:56.821Z,97413.34
2023-04-01T21:16:10.300Z,97431.40
2023-04-01T21:26:35.765Z,97445.98
2023-04-01T21:36:49.095Z,97452.56
2023-04-01T21:47:25.145Z,97462.71
2023-04-01T21:57:59.760Z,97464.17
2023-04-01T22:08:05.649Z,97477.49
2023-04-01T22:18:18.283Z,97488.94
2023-04-01T22:28:29.727Z,97495.05
2023-04-01T22:38:40.579Z,97501.04
2023-04-01T22:48:48.991Z,97504.88
2023-04-01T22:58:57.509Z,97514.20
2023-04-01T23:09:07.355Z,97524.58
2023-04-01T23:19:17.646Z,97534.57
2023-04-01T23:29:27.347Z,97537.28
2023-04-01T23:39:32.225Z,97540.33
2023-04-01T23:49:36.349Z,97550.93
2023-04-01T23:59:43.124Z,97557.46
